Time;durP1;ratioP1;P1;durP2;ratioP2;P2;SDS_P1;SDS_P2;PMS_P1;PMS_P2;Temp;Humidity;BMP_temperature;BMP_pressure;BME280_temperature;BME280_humidity;BME280_pressure;Samples;Min_cycle;Max_cycle;Signal;HPM_P1;HPM_P2
2023/07/31 00:01:45;;;;;;;8.65;5.00;;;589.00;2432.00;;;;;;5112390;27;20047;-70
2023/07/31 00:04:11;;;;;;;11.90;5.75;;;589.00;2432.00;;;;;;5110300;27;20028;-70
2023/07/31 00:06:37;;;;;;;10.80;6.10;;;588.90;2432.00;;;;;;5114208;27;20491;-70
2023/07/31 00:09:02;;;;;;;8.90;5.68;;;589.00;2432.00;;;;;;5107134;27;20055;-71
2023/07/31 00:11:28;;;;;;;7.25;5.50;;;588.90;2432.00;;;;;;5114065;27;20492;-73
2023/07/31 00:13:54;;;;;;;10.35;6.53;;;588.80;2432.00;;;;;;5115323;27;20027;-72
2023/07/31 00:16:20;;;;;;;7.30;5.88;;;588.80;2432.00;;;;;;5104450;27;20465;-71
2023/07/31 00:18:45;;;;;;;8.27;5.53;;;588.80;2432.00;;;;;;5117290;27;20035;-72
2023/07/31 00:21:11;;;;;;;9.75;5.90;;;588.80;2432.00;;;;;;5117902;27;20028;-71
2023/07/31 00:23:37;;;;;;;8.88;5.85;;;588.90;2432.00;;;;;;5115931;27;20110;-70
2023/07/31 00:26:02;;;;;;;9.80;6.45;;;588.80;2432.00;;;;;;5110460;28;20081;-70
2023/07/31 00:28:28;;;;;;;8.07;6.07;;;588.80;2432.00;;;;;;5114097;28;20027;-71
2023/07/31 00:30:54;;;;;;;8.35;5.85;;;564.10;2432.00;;;;;;5101928;27;20024;-77
2023/07/31 00:33:20;;;;;;;10.63;5.63;;;564.10;2432.00;;;;;;5093788;28;20020;-74
2023/07/31 00:35:45;;;;;;;11.57;5.47;;;564.10;2432.00;;;;;;5106392;28;20050;-70
2023/07/31 00:38:11;;;;;;;9.93;6.20;;;564.10;2432.00;;;;;;5113266;28;20036;-70
2023/07/31 00:40:37;;;;;;;10.05;6.25;;;588.80;2432.00;;;;;;5113960;28;20418;-75
2023/07/31 00:43:03;;;;;;;8.55;6.05;;;564.10;2432.00;;;;;;5113595;28;20030;-70
2023/07/31 00:45:29;;;;;;;7.78;5.55;;;564.10;2432.00;;;;;;5113739;28;20478;-78
2023/07/31 00:47:55;;;;;;;7.63;5.90;;;564.10;2432.00;;;;;;5113600;28;20023;-71
2023/07/31 00:50:24;;;;;;;7.35;5.72;;;564.00;2432.00;;;;;;5113636;28;20015;-71
2023/07/31 00:52:50;;;;;;;7.65;5.53;;;564.00;2432.00;;;;;;5111728;28;20027;-71
2023/07/31 00:55:16;;;;;;;10.30;5.68;;;564.10;2432.00;;;;;;5113687;28;20016;-71
2023/07/31 00:57:44;;;;;;;12.20;5.40;;;564.10;2432.00;;;;;;5113567;28;20022;-70
2023/07/31 01:00:10;;;;;;;9.43;5.65;;;564.10;2432.00;;;;;;5112084;28;20032;-70
2023/07/31 01:02:36;;;;;;;10.50;5.95;;;563.90;2432.00;;;;;;5113433;28;20024;-71
2023/07/31 01:05:03;;;;;;;10.30;5.95;;;564.10;2432.00;;;;;;5113539;28;20489;-70
2023/07/31 01:07:37;;;;;;;9.52;5.93;;;564.10;2432.00;;;;;;5100076;28;20020;-71
2023/07/31 01:10:20;;;;;;;9.30;6.07;;;564.10;2432.00;;;;;;5111954;28;20052;-70
2023/07/31 01:12:47;;;;;;;10.13;6.07;;;564.10;2432.00;;;;;;5113357;28;20529;-72
2023/07/31 01:15:14;;;;;;;9.55;6.28;;;564.10;2432.00;;;;;;5112182;28;20028;-71
2023/07/31 01:17:43;;;;;;;9.13;5.20;;;564.10;2432.00;;;;;;5113352;28;20023;-70
2023/07/31 01:20:21;;;;;;;6.82;4.82;;;564.10;2432.00;;;;;;5113346;28;20039;-70
2023/07/31 01:22:56;;;;;;;9.32;5.70;;;564.10;2432.00;;;;;;5113289;28;20354;-71
2023/07/31 01:25:31;;;;;;;8.48;5.18;;;564.10;2432.00;;;;;;5112005;28;20495;-71
2023/07/31 01:28:04;;;;;;;7.85;4.95;;;564.10;2432.00;;;;;;5113432;28;20103;-72
2023/07/31 01:30:35;;;;;;;9.85;6.10;;;564.00;2432.00;;;;;;5113069;28;20012;-75
2023/07/31 01:33:06;;;;;;;9.38;5.90;;;563.90;2432.00;;;;;;5112132;28;20084;-72
2023/07/31 01:35:36;;;;;;;7.90;5.57;;;563.90;2432.00;;;;;;5113088;28;20016;-71
2023/07/31 01:38:02;;;;;;;7.60;5.82;;;563.90;2432.00;;;;;;5112982;28;20035;-70
2023/07/31 01:40:28;;;;;;;9.32;6.82;;;564.00;2432.00;;;;;;5113189;28;20028;-71
2023/07/31 01:42:54;;;;;;;8.27;6.00;;;563.90;2432.00;;;;;;5113447;28;20055;-71
2023/07/31 01:45:19;;;;;;;9.07;6.03;;;563.90;2432.00;;;;;;5113037;28;20419;-70
2023/07/31 01:47:45;;;;;;;10.07;6.15;;;563.90;2432.00;;;;;;5113319;28;20028;-71
2023/07/31 01:50:11;;;;;;;9.98;6.35;;;563.90;2432.00;;;;;;5113273;28;20020;-71
2023/07/31 01:52:37;;;;;;;10.60;7.25;;;563.90;2432.00;;;;;;5111710;28;20020;-79
2023/07/31 01:55:03;;;;;;;9.85;7.15;;;563.80;2432.00;;;;;;5112905;28;20388;-70
2023/07/31 01:57:28;;;;;;;12.07;7.70;;;563.90;2432.00;;;;;;5113025;28;20031;-78
2023/07/31 01:59:54;;;;;;;11.80;8.48;;;563.90;2432.00;;;;;;5112837;28;20024;-75
2023/07/31 02:02:20;;;;;;;12.30;7.68;;;563.90;2432.00;;;;;;5112935;28;20024;-71
2023/07/31 02:04:46;;;;;;;11.55;7.70;;;563.80;2432.00;;;;;;5112911;28;20016;-71
2023/07/31 02:07:12;;;;;;;12.45;7.72;;;563.80;2432.00;;;;;;5113972;28;20357;-71
2023/07/31 02:09:37;;;;;;;10.05;7.72;;;563.90;2432.00;;;;;;5116399;28;20453;-71
2023/07/31 02:12:03;;;;;;;11.88;8.00;;;563.90;2432.00;;;;;;5116654;28;20030;-71
2023/07/31 02:14:29;;;;;;;11.80;7.80;;;563.90;2432.00;;;;;;5115100;28;20460;-71
2023/07/31 02:16:55;;;;;;;16.95;8.65;;;563.90;2432.00;;;;;;5116480;28;20047;-70
2023/07/31 02:19:20;;;;;;;15.23;8.98;;;563.80;2432.00;;;;;;5116508;28;20031;-71
2023/07/31 02:21:46;;;;;;;15.27;9.13;;;563.80;2432.00;;;;;;5116559;28;20023;-71
2023/07/31 02:24:12;;;;;;;11.48;8.07;;;563.80;2432.00;;;;;;5116042;28;20076;-71
2023/07/31 02:26:37;;;;;;;13.52;8.70;;;563.80;2432.00;;;;;;5116389;28;20055;-71
2023/07/31 02:29:03;;;;;;;15.95;8.57;;;563.80;2432.00;;;;;;5116152;28;20059;-70
2023/07/31 02:31:29;;;;;;;18.02;8.93;;;563.80;2432.00;;;;;;5116195;28;20028;-71
2023/07/31 02:33:54;;;;;;;13.95;8.95;;;563.80;2432.00;;;;;;5116180;28;20027;-71
2023/07/31 02:36:20;;;;;;;11.70;7.68;;;563.80;2432.00;;;;;;5116310;28;20569;-70
2023/07/31 02:38:46;;;;;;;14.60;8.80;;;563.70;2432.00;;;;;;5115924;28;20477;-71
2023/07/31 02:41:11;;;;;;;15.40;8.27;;;563.70;2432.00;;;;;;5116099;28;20024;-72
2023/07/31 02:43:37;;;;;;;15.50;8.38;;;563.70;2432.00;;;;;;5115891;28;20016;-75
2023/07/31 02:46:03;;;;;;;11.65;8.07;;;563.70;2432.00;;;;;;5114732;28;20027;-70
2023/07/31 02:48:28;;;;;;;12.27;7.57;;;563.60;2432.00;;;;;;5115684;28;20054;-70
2023/07/31 02:50:54;;;;;;;12.10;8.00;;;563.60;2432.00;;;;;;5116024;28;20021;-71
2023/07/31 02:53:20;;;;;;;13.50;7.50;;;563.70;2432.00;;;;;;5115361;28;20095;-74
2023/07/31 02:55:45;;;;;;;15.45;8.57;;;563.80;2432.00;;;;;;5115884;28;20350;-71
2023/07/31 02:58:11;;;;;;;13.88;8.00;;;563.80;2432.00;;;;;;5115620;28;20405;-71
2023/07/31 03:00:42;;;;;;;14.85;8.70;;;563.70;2432.00;;;;;;5115671;28;20134;-77
2023/07/31 03:03:08;;;;;;;13.75;8.13;;;563.70;2432.00;;;;;;5115410;28;20035;-71
2023/07/31 03:05:33;;;;;;;10.43;7.30;;;563.60;2432.00;;;;;;5115716;28;20397;-71
2023/07/31 03:07:59;;;;;;;12.02;7.10;;;563.60;2432.00;;;;;;5115541;28;20030;-70
2023/07/31 03:10:25;;;;;;;12.77;7.43;;;563.60;2432.00;;;;;;5113811;28;20123;-70
2023/07/31 03:12:50;;;;;;;15.35;7.25;;;563.60;2432.00;;;;;;5115362;28;20077;-72
2023/07/31 03:15:16;;;;;;;13.65;7.03;;;563.60;2432.00;;;;;;5115351;28;20020;-70
2023/07/31 03:17:42;;;;;;;10.65;6.60;;;563.70;2432.00;;;;;;5113730;28;20028;-71
2023/07/31 03:20:08;;;;;;;18.77;7.28;;;563.70;2432.00;;;;;;5115268;28;20042;-72
2023/07/31 03:22:35;;;;;;;13.30;6.78;;;563.70;2432.00;;;;;;5114227;28;20107;-71
2023/07/31 03:25:01;;;;;;;11.15;6.55;;;563.70;2432.00;;;;;;5115266;28;20020;-70
2023/07/31 03:27:27;;;;;;;10.20;6.47;;;563.70;2432.00;;;;;;5115318;28;20011;-78
2023/07/31 03:29:52;;;;;;;10.63;6.10;;;563.70;2432.00;;;;;;5115066;28;20110;-71
2023/07/31 03:32:18;;;;;;;11.50;5.93;;;563.70;2432.00;;;;;;5115092;28;20027;-71
2023/07/31 03:34:44;;;;;;;9.57;5.65;;;563.60;2432.00;;;;;;5114848;28;20028;-71
2023/07/31 03:37:09;;;;;;;8.20;6.35;;;563.70;2432.00;;;;;;5114836;28;20028;-74
2023/07/31 03:39:35;;;;;;;8.10;5.72;;;563.60;2432.00;;;;;;5114660;28;20035;-71
2023/07/31 03:42:01;;;;;;;12.77;6.93;;;563.60;2432.00;;;;;;5114742;28;20070;-71
2023/07/31 03:44:27;;;;;;;7.78;5.63;;;563.60;2432.00;;;;;;5114805;28;20023;-71
2023/07/31 03:46:52;;;;;;;13.05;5.70;;;563.60;2432.00;;;;;;5114500;28;20031;-71
2023/07/31 03:49:18;;;;;;;11.40;5.70;;;563.60;2432.00;;;;;;5113396;28;20084;-72
2023/07/31 03:51:44;;;;;;;8.98;5.45;;;563.60;2432.00;;;;;;5114435;28;20031;-70
2023/07/31 03:54:10;;;;;;;8.57;5.82;;;563.60;2432.00;;;;;;5114755;28;20051;-71
2023/07/31 03:56:36;;;;;;;7.32;6.00;;;563.60;2432.00;;;;;;5114539;28;20089;-76
2023/07/31 03:59:01;;;;;;;9.98;5.72;;;563.60;2432.00;;;;;;5114506;28;20027;-71
2023/07/31 04:01:27;;;;;;;10.00;6.25;;;563.60;2432.00;;;;;;5113367;28;20024;-79
2023/07/31 04:03:52;;;;;;;7.93;5.28;;;563.60;2432.00;;;;;;5113081;28;20080;-76
2023/07/31 04:06:18;;;;;;;9.40;5.85;;;563.60;2432.00;;;;;;5114436;28;20019;-71
2023/07/31 04:08:45;;;;;;;15.48;6.07;;;563.60;2432.00;;;;;;5114043;28;20104;-71
2023/07/31 04:11:12;;;;;;;8.63;6.03;;;563.60;2432.00;;;;;;5114169;28;20019;-71
2023/07/31 04:13:38;;;;;;;8.07;5.72;;;563.60;2432.00;;;;;;5114262;28;20027;-71
2023/07/31 04:16:04;;;;;;;12.80;6.13;;;563.60;2432.00;;;;;;5114045;28;20024;-71
2023/07/31 04:18:30;;;;;;;10.68;7.45;;;563.60;2432.00;;;;;;5114378;28;20088;-72
2023/07/31 04:20:58;;;;;;;8.40;5.90;;;563.60;2432.00;;;;;;5112359;28;20032;-72
2023/07/31 04:23:24;;;;;;;8.32;5.85;;;563.60;2432.00;;;;;;5114186;28;20020;-72
2023/07/31 04:25:50;;;;;;;7.90;5.45;;;563.70;2432.00;;;;;;5113918;28;20102;-71
2023/07/31 04:28:15;;;;;;;9.82;5.78;;;563.70;2432.00;;;;;;5113862;28;20426;-72
2023/07/31 04:30:41;;;;;;;9.10;5.88;;;563.70;2432.00;;;;;;5112405;28;20110;-78
2023/07/31 04:33:07;;;;;;;13.20;6.25;;;563.70;2432.00;;;;;;5114042;28;20098;-75
2023/07/31 04:35:32;;;;;;;7.55;5.63;;;563.70;2432.00;;;;;;5113689;28;20015;-71
2023/07/31 04:37:58;;;;;;;8.85;5.70;;;563.70;2432.00;;;;;;5113605;28;20093;-71
2023/07/31 04:40:24;;;;;;;9.57;6.30;;;563.70;2432.00;;;;;;5112200;28;20031;-70
2023/07/31 04:42:50;;;;;;;10.75;6.75;;;563.70;2432.00;;;;;;5113709;28;20026;-70
2023/07/31 04:45:15;;;;;;;11.13;7.32;;;563.80;2432.00;;;;;;5113684;28;20102;-74
2023/07/31 04:47:41;;;;;;;9.73;6.88;;;563.80;2432.00;;;;;;5113747;28;20103;-79
2023/07/31 04:50:07;;;;;;;9.60;6.13;;;563.80;2432.00;;;;;;5113538;28;20377;-72
2023/07/31 04:52:33;;;;;;;9.70;6.25;;;563.80;2432.00;;;;;;5113928;28;20019;-71
2023/07/31 04:54:58;;;;;;;8.20;6.30;;;563.80;2432.00;;;;;;5113514;28;20024;-71
2023/07/31 04:57:24;;;;;;;11.07;6.43;;;563.70;2432.00;;;;;;5113570;28;20076;-71
2023/07/31 04:59:50;;;;;;;11.07;6.95;;;563.80;2432.00;;;;;;5113613;28;20419;-70
2023/07/31 05:02:15;;;;;;;8.88;6.90;;;563.80;2432.00;;;;;;5105797;28;20027;-68
2023/07/31 05:04:41;;;;;;;10.32;7.20;;;563.70;2432.00;;;;;;5101280;28;20080;-69
2023/07/31 05:07:07;;;;;;;9.45;6.40;;;563.80;2432.00;;;;;;5102800;28;20027;-71
2023/07/31 05:09:33;;;;;;;8.45;6.38;;;563.80;2432.00;;;;;;5100406;28;20074;-70
2023/07/31 05:11:58;;;;;;;14.68;7.53;;;563.90;2432.00;;;;;;5101924;28;20019;-69
2023/07/31 05:14:24;;;;;;;8.23;6.10;;;564.00;2432.00;;;;;;5101076;28;20019;-74
2023/07/31 05:16:50;;;;;;;8.93;6.72;;;563.90;2432.00;;;;;;5094002;28;20103;-70
2023/07/31 05:19:15;;;;;;;10.50;6.10;;;563.90;2432.00;;;;;;5104264;28;20036;-70
2023/07/31 05:21:41;;;;;;;10.10;6.18;;;564.00;2432.00;;;;;;5106047;28;20096;-69
2023/07/31 05:24:06;;;;;;;8.55;6.20;;;564.10;2432.00;;;;;;5099776;28;20024;-70
2023/07/31 05:26:32;;;;;;;8.70;6.63;;;564.10;2432.00;;;;;;5104502;28;20028;-69
2023/07/31 05:28:58;;;;;;;10.93;7.22;;;564.10;2432.00;;;;;;5103572;28;20553;-69
2023/07/31 05:31:24;;;;;;;12.25;7.03;;;564.10;2432.00;;;;;;5096855;28;20524;-72
2023/07/31 05:33:50;;;;;;;10.98;7.55;;;564.10;2432.00;;;;;;5096848;28;20550;-71
2023/07/31 05:36:17;;;;;;;12.57;7.25;;;564.10;2432.00;;;;;;5098908;28;20052;-71
2023/07/31 05:38:44;;;;;;;9.45;7.00;;;564.10;2432.00;;;;;;5103128;28;20027;-73
2023/07/31 05:41:11;;;;;;;8.85;6.80;;;564.10;2432.00;;;;;;5102216;28;20484;-71
2023/07/31 05:43:37;;;;;;;12.50;6.60;;;588.80;2432.00;;;;;;5106921;27;20024;-71
2023/07/31 05:46:03;;;;;;;11.40;7.28;;;588.90;2432.00;;;;;;5099965;28;20362;-73
2023/07/31 05:48:28;;;;;;;9.88;6.82;;;589.00;2432.00;;;;;;5106629;28;20107;-70
2023/07/31 05:50:54;;;;;;;12.40;7.70;;;589.00;2432.00;;;;;;5108896;28;20059;-69
2023/07/31 05:53:20;;;;;;;11.20;6.43;;;589.00;2432.00;;;;;;5104407;28;20055;-70
2023/07/31 05:55:45;;;;;;;10.27;7.30;;;589.00;2432.00;;;;;;5106238;28;20024;-69
2023/07/31 05:58:11;;;;;;;10.18;7.18;;;589.00;2432.00;;;;;;5104887;28;20120;-69
2023/07/31 06:00:37;;;;;;;11.55;6.97;;;589.30;2432.00;;;;;;5104018;28;20089;-70
2023/07/31 06:03:03;;;;;;;13.55;7.40;;;589.30;2432.00;;;;;;5102657;28;20024;-69
2023/07/31 06:05:29;;;;;;;8.95;6.53;;;589.50;2432.00;;;;;;5105046;28;20193;-71
2023/07/31 06:07:55;;;;;;;11.43;7.22;;;589.70;2432.00;;;;;;5101312;28;20470;-71
2023/07/31 06:10:21;;;;;;;9.63;6.63;;;589.70;2432.00;;;;;;5100689;28;20063;-72
2023/07/31 06:12:47;;;;;;;9.52;6.35;;;589.70;2432.00;;;;;;5103599;28;20107;-71
2023/07/31 06:15:13;;;;;;;8.55;6.45;;;614.40;2432.00;;;;;;5098985;28;20035;-70
2023/07/31 06:17:39;;;;;;;10.05;6.53;;;614.50;2432.00;;;;;;5099030;28;20100;-71
2023/07/31 06:20:06;;;;;;;8.65;5.82;;;614.60;2432.00;;;;;;5106195;28;20054;-70
2023/07/31 06:22:32;;;;;;;8.70;5.30;;;614.70;2432.00;;;;;;5104490;28;20457;-70
2023/07/31 06:24:58;;;;;;;9.60;5.07;;;614.80;2432.00;;;;;;5106869;28;20060;-70
2023/07/31 06:27:24;;;;;;;11.70;4.70;;;614.90;2432.00;;;;;;5107148;28;20415;-70
2023/07/31 06:29:49;;;;;;;8.55;4.95;;;615.10;2432.00;;;;;;5101093;28;20103;-71
2023/07/31 06:32:15;;;;;;;6.65;4.30;;;615.30;2432.00;;;;;;5106430;28;20024;-73
2023/07/31 06:34:41;;;;;;;6.78;4.47;;;640.00;2432.00;;;;;;5099122;28;20077;-70
2023/07/31 06:37:06;;;;;;;9.95;5.63;;;640.10;2432.00;;;;;;5104000;28;20028;-70
2023/07/31 06:39:32;;;;;;;7.63;4.13;;;640.20;2432.00;;;;;;5099276;28;20139;-69
2023/07/31 06:41:58;;;;;;;9.63;4.97;;;640.50;2432.00;;;;;;5104739;28;20546;-70
2023/07/31 06:44:23;;;;;;;8.05;4.82;;;640.50;2432.00;;;;;;5103760;28;20035;-71
2023/07/31 06:46:49;;;;;;;14.15;4.93;;;640.70;2432.00;;;;;;5103804;28;20115;-70
2023/07/31 06:49:15;;;;;;;7.45;4.57;;;640.70;2432.00;;;;;;5106331;28;20567;-71
2023/07/31 06:51:41;;;;;;;7.75;4.40;;;640.90;2432.00;;;;;;5102123;28;20028;-70
2023/07/31 06:54:08;;;;;;;9.23;5.10;;;640.90;2432.00;;;;;;5105658;28;20027;-69
2023/07/31 06:56:34;;;;;;;7.78;4.53;;;665.60;2432.00;;;;;;5105768;28;20020;-70
2023/07/31 06:58:59;;;;;;;6.63;4.70;;;665.70;2432.00;;;;;;5105749;28;20085;-70
2023/07/31 07:01:25;;;;;;;9.80;4.47;;;665.90;2432.00;;;;;;5106018;28;20034;-72
2023/07/31 07:03:51;;;;;;;8.68;4.20;;;665.90;2432.00;;;;;;5105095;28;20028;-69
2023/07/31 07:06:20;;;;;;;5.90;3.88;;;665.90;2432.00;;;;;;5101553;28;20035;-71
2023/07/31 07:08:45;;;;;;;9.43;3.65;;;666.00;2432.00;;;;;;5093207;28;20059;-70
2023/07/31 07:11:11;;;;;;;7.28;3.53;;;666.50;2432.00;;;;;;5106620;28;20028;-71
2023/07/31 07:13:37;;;;;;;7.05;3.80;;;666.40;2432.00;;;;;;5108570;28;20059;-71
2023/07/31 07:16:03;;;;;;;4.82;3.83;;;666.50;2432.00;;;;;;5103777;28;20051;-74
2023/07/31 07:18:28;;;;;;;7.22;3.75;;;691.30;2432.00;;;;;;5104894;28;20417;-75
2023/07/31 07:20:54;;;;;;;5.55;3.75;;;691.40;2432.00;;;;;;5102284;28;20497;-70
2023/07/31 07:23:20;;;;;;;7.18;3.83;;;691.40;2432.00;;;;;;5106536;28;20392;-72
2023/07/31 07:25:47;;;;;;;9.55;3.72;;;691.60;2432.00;;;;;;5101999;28;20059;-70
2023/07/31 07:28:13;;;;;;;9.52;4.45;;;691.70;2432.00;;;;;;5105172;28;20019;-70
2023/07/31 07:30:39;;;;;;;6.35;4.00;;;691.90;2432.00;;;;;;5134760;27;20385;-70
2023/07/31 07:33:05;;;;;;;9.65;6.35;;;692.10;2432.00;;;;;;5108532;28;20023;-69
2023/07/31 07:35:34;;;;;;;7.45;5.38;;;716.90;2432.00;;;;;;5107246;28;20411;-71
2023/07/31 07:38:01;;;;;;;6.90;4.55;;;716.80;2432.00;;;;;;5101191;28;20039;-70
2023/07/31 07:40:27;;;;;;;5.18;3.78;;;717.00;2432.00;;;;;;5103826;28;20043;-71
2023/07/31 07:42:52;;;;;;;6.22;4.00;;;717.10;2432.00;;;;;;5102365;28;20489;-70
2023/07/31 07:45:18;;;;;;;9.45;3.90;;;717.20;2432.00;;;;;;5108357;28;20357;-70
2023/07/31 07:47:44;;;;;;;6.47;3.38;;;717.40;2432.00;;;;;;5099873;28;20099;-70
2023/07/31 07:50:10;;;;;;;5.28;3.55;;;717.70;2432.00;;;;;;5104157;28;20027;-70
2023/07/31 07:52:35;;;;;;;8.43;4.35;;;717.70;2432.00;;;;;;5104295;28;20027;-71
2023/07/31 07:55:01;;;;;;;6.00;3.42;;;742.50;2380.80;;;;;;5100540;28;20110;-70
2023/07/31 07:57:28;;;;;;;5.15;3.17;;;717.70;2406.40;;;;;;5105254;28;20020;-70
2023/07/31 07:59:53;;;;;;;5.40;3.38;;;742.50;2380.80;;;;;;5105135;28;20946;-72
2023/07/31 08:02:19;;;;;;;4.97;3.22;;;742.60;2329.60;;;;;;5103820;28;20107;-70
2023/07/31 08:04:45;;;;;;;5.28;2.90;;;742.90;2278.40;;;;;;5102581;28;20419;-74
2023/07/31 08:07:12;;;;;;;5.50;3.90;;;742.90;2227.20;;;;;;5099967;28;20099;-75
2023/07/31 08:09:38;;;;;;;7.45;3.05;;;742.90;2176.00;;;;;;5100555;28;20492;-72
2023/07/31 08:12:04;;;;;;;4.90;3.03;;;743.00;2124.80;;;;;;5100644;28;20104;-71
2023/07/31 08:14:30;;;;;;;5.32;2.60;;;743.10;2124.80;;;;;;5097872;28;20032;-71
2023/07/31 08:16:56;;;;;;;4.40;2.92;;;743.20;2022.40;;;;;;5104820;28;20034;-69
2023/07/31 08:19:21;;;;;;;5.88;2.95;;;768.10;2022.40;;;;;;5100917;28;20080;-70
2023/07/31 08:21:47;;;;;;;4.05;2.67;;;768.20;1996.80;;;;;;5102645;28;20028;-72
2023/07/31 08:24:13;;;;;;;8.02;2.88;;;768.50;1971.20;;;;;;5107464;28;20123;-69
2023/07/31 08:26:39;;;;;;;4.38;2.83;;;768.50;1920.00;;;;;;5104977;28;20028;-69
2023/07/31 08:29:04;;;;;;;4.38;2.90;;;768.50;1945.60;;;;;;5095587;28;20070;-70
2023/07/31 08:31:30;;;;;;;4.65;2.60;;;768.90;1920.00;;;;;;5107206;28;20036;-70
2023/07/31 08:33:56;;;;;;;3.63;2.42;;;768.90;1894.40;;;;;;5105790;28;20024;-74
2023/07/31 08:36:22;;;;;;;4.35;2.92;;;768.90;1843.20;;;;;;5103795;28;20093;-68
2023/07/31 08:38:48;;;;;;;5.20;3.38;;;768.60;1843.20;;;;;;5098974;28;20127;-71
2023/07/31 08:41:13;;;;;;;3.53;2.40;;;768.00;1843.20;;;;;;5098586;28;20031;-71
2023/07/31 08:43:39;;;;;;;4.43;2.53;;;743.30;1868.80;;;;;;5104300;28;20028;-70
2023/07/31 08:46:05;;;;;;;5.88;2.67;;;743.10;1817.60;;;;;;5096263;28;20516;-70
2023/07/31 08:48:33;;;;;;;4.18;2.65;;;743.10;1817.60;;;;;;5102298;28;20108;-72
2023/07/31 08:50:58;;;;;;;4.03;2.65;;;742.90;1868.80;;;;;;5097964;28;20070;-70
2023/07/31 08:53:24;;;;;;;5.32;2.50;;;768.00;1843.20;;;;;;5100223;28;20415;-70
2023/07/31 08:55:53;;;;;;;3.53;2.30;;;768.30;1740.80;;;;;;5098370;28;20028;-70
2023/07/31 08:58:20;;;;;;;6.15;2.70;;;768.10;1664.00;;;;;;5101028;28;20016;-70
2023/07/31 09:00:47;;;;;;;4.97;2.20;;;768.60;1689.60;;;;;;5109244;28;20084;-69
2023/07/31 09:03:21;;;;;;;3.80;1.98;;;768.90;1536.00;;;;;;5097703;28;20028;-72
2023/07/31 09:05:47;;;;;;;8.48;2.90;;;793.80;1612.80;;;;;;5099617;28;20028;-72
2023/07/31 09:08:15;;;;;;;3.40;2.42;;;794.00;1536.00;;;;;;5131226;27;20039;-71
2023/07/31 09:10:47;;;;;;;4.15;2.33;;;794.00;1587.20;;;;;;5102832;28;20036;-70
2023/07/31 09:13:14;;;;;;;7.00;2.22;;;793.80;1536.00;;;;;;5102794;28;20020;-72
2023/07/31 09:15:42;;;;;;;4.68;2.15;;;793.80;1561.60;;;;;;5130867;27;20036;-73
2023/07/31 09:18:09;;;;;;;6.53;2.80;;;794.10;1536.00;;;;;;5100230;28;20028;-72
2023/07/31 09:20:36;;;;;;;4.97;2.42;;;793.90;1587.20;;;;;;5111000;28;20044;-71
2023/07/31 09:23:13;;;;;;;3.80;2.22;;;768.70;1510.40;;;;;;5101164;28;20024;-71
2023/07/31 09:25:39;;;;;;;5.78;2.20;;;768.90;1484.80;;;;;;5108272;28;20031;-74
2023/07/31 09:28:09;;;;;;;4.15;2.50;;;793.60;1484.80;;;;;;5105720;28;20024;-73
2023/07/31 09:30:54;;;;;;;4.78;2.70;;;793.90;1484.80;;;;;;5105492;28;20105;-73
2023/07/31 09:33:20;;;;;;;5.20;2.60;;;794.30;1433.60;;;;;;5104163;28;20036;-71
2023/07/31 09:35:48;;;;;;;8.18;2.90;;;794.50;1382.40;;;;;;5110346;28;20032;-75
2023/07/31 09:38:15;;;;;;;3.88;2.25;;;794.40;1408.00;;;;;;5103553;28;20032;-70
2023/07/31 09:40:45;;;;;;;4.75;2.20;;;794.00;1408.00;;;;;;5103383;28;20040;-73
2023/07/31 09:43:12;;;;;;;11.75;3.05;;;794.20;1382.40;;;;;;5107004;28;20027;-72
2023/07/31 09:45:40;;;;;;;3.20;2.10;;;794.50;1382.40;;;;;;5104784;28;20055;-71
2023/07/31 09:48:17;;;;;;;6.00;2.42;;;794.50;1356.80;;;;;;5107776;28;20418;-70
2023/07/31 09:50:47;;;;;;;6.70;2.47;;;794.50;1356.80;;;;;;5102672;28;20027;-71
2023/07/31 09:53:13;;;;;;;3.45;2.20;;;819.30;1356.80;;;;;;5105155;28;20035;-71
2023/07/31 09:55:41;;;;;;;3.53;2.40;;;819.30;1356.80;;;;;;5108100;28;20511;-71
2023/07/31 09:58:10;;;;;;;5.95;2.25;;;819.50;1331.20;;;;;;5105345;28;20530;-71
2023/07/31 10:00:37;;;;;;;5.25;2.50;;;819.90;1331.20;;;;;;5104024;28;20036;-70
2023/07/31 10:03:10;;;;;;;3.92;2.63;;;820.10;1280.00;;;;;;5102599;28;20128;-73
2023/07/31 10:05:47;;;;;;;3.67;2.22;;;820.10;1254.40;;;;;;5105750;28;20035;-72
2023/07/31 10:08:15;;;;;;;8.15;2.25;;;845.00;1228.80;;;;;;5101330;28;20427;-70
2023/07/31 10:10:45;;;;;;;3.88;2.55;;;844.90;1228.80;;;;;;5105589;28;20089;-70
2023/07/31 10:13:12;;;;;;;3.55;2.35;;;844.90;1228.80;;;;;;5105911;27;20542;-71
2023/07/31 10:15:38;;;;;;;6.78;2.20;;;845.00;1203.20;;;;;;5099114;28;20032;-70
2023/07/31 10:18:06;;;;;;;5.10;1.92;;;845.20;1177.60;;;;;;5098592;28;20020;-70
2023/07/31 10:20:33;;;;;;;6.30;2.25;;;845.20;1177.60;;;;;;5103107;28;20144;-70
2023/07/31 10:23:00;;;;;;;3.95;2.08;;;845.20;1203.20;;;;;;5102092;28;20362;-70
2023/07/31 10:25:26;;;;;;;3.97;2.25;;;845.30;1152.00;;;;;;5102489;28;20489;-71
2023/07/31 10:27:54;;;;;;;5.97;2.60;;;845.60;1177.60;;;;;;5105187;28;20084;-70
2023/07/31 10:30:24;;;;;;;5.15;2.50;;;845.60;1177.60;;;;;;5106409;28;20488;-69
2023/07/31 10:32:52;;;;;;;5.18;2.17;;;870.40;1152.00;;;;;;5105454;28;20112;-70
2023/07/31 10:35:18;;;;;;;8.35;2.88;;;870.40;1100.80;;;;;;5104301;28;20027;-70
2023/07/31 10:37:44;;;;;;;4.47;2.28;;;870.50;1100.80;;;;;;5104929;28;20054;-74
2023/07/31 10:40:11;;;;;;;12.52;2.60;;;845.50;1100.80;;;;;;5101510;28;20425;-72
2023/07/31 10:42:45;;;;;;;5.53;1.88;;;870.40;1075.20;;;;;;5102171;28;20028;-70
2023/07/31 10:45:11;;;;;;;3.38;2.13;;;870.40;1075.20;;;;;;5103176;28;20032;-70
2023/07/31 10:47:38;;;;;;;5.22;2.80;;;845.70;1075.20;;;;;;5100783;28;20038;-72
2023/07/31 10:50:20;;;;;;;5.55;2.38;;;870.50;1075.20;;;;;;5106699;28;20067;-70
2023/07/31 10:52:51;;;;;;;3.33;2.03;;;870.50;1100.80;;;;;;5109975;28;20020;-70
2023/07/31 10:55:33;;;;;;;5.95;2.05;;;870.60;1049.60;;;;;;5099387;28;20481;-71
2023/07/31 10:58:13;;;;;;;4.22;2.40;;;870.70;1075.20;;;;;;5103838;28;20493;-72
2023/07/31 11:00:42;;;;;;;3.50;2.33;;;845.60;1075.20;;;;;;5106702;28;20067;-76
2023/07/31 11:03:12;;;;;;;3.78;2.00;;;870.80;1049.60;;;;;;5102976;28;20023;-71
2023/07/31 11:05:58;;;;;;;4.75;2.30;;;870.60;1075.20;;;;;;5100914;28;20036;-71
2023/07/31 11:08:28;;;;;;;5.32;2.67;;;870.60;1126.40;;;;;;5105237;28;20497;-70
2023/07/31 11:11:02;;;;;;;5.13;2.17;;;870.50;1100.80;;;;;;5100361;28;20040;-74
2023/07/31 11:13:28;;;;;;;5.93;2.53;;;870.70;1100.80;;;;;;5101744;28;20020;-71
2023/07/31 11:15:54;;;;;;;4.95;2.20;;;870.80;1049.60;;;;;;5098092;28;20039;-70
2023/07/31 11:18:19;;;;;;;5.18;2.35;;;870.50;1075.20;;;;;;5099396;28;20036;-71
2023/07/31 11:20:45;;;;;;;5.38;2.30;;;870.70;1049.60;;;;;;5103823;28;20452;-70
2023/07/31 11:23:11;;;;;;;3.00;2.13;;;870.70;1049.60;;;;;;5101692;28;20023;-75
2023/07/31 11:25:41;;;;;;;3.80;2.08;;;870.70;1024.00;;;;;;5097642;28;20027;-70
2023/07/31 11:28:09;;;;;;;4.53;2.10;;;870.90;1024.00;;;;;;5136687;27;20513;-73
2023/07/31 11:30:35;;;;;;;3.22;1.77;;;871.10;998.40;;;;;;5106445;28;20110;-70
2023/07/31 11:33:03;;;;;;;5.07;2.15;;;871.10;998.40;;;;;;5101409;28;20433;-72
2023/07/31 11:35:31;;;;;;;4.22;2.25;;;871.10;998.40;;;;;;5097259;28;20059;-70
2023/07/31 11:37:56;;;;;;;4.22;2.25;;;870.90;998.40;;;;;;5101750;28;20050;-70
2023/07/31 11:40:22;;;;;;;5.72;2.25;;;871.10;1049.60;;;;;;5099703;28;20044;-69
2023/07/31 11:42:48;;;;;;;6.25;2.35;;;871.10;1049.60;;;;;;5098099;28;20024;-72
2023/07/31 11:45:13;;;;;;;4.82;2.20;;;871.00;1100.80;;;;;;5104277;28;20035;-70
2023/07/31 11:47:40;;;;;;;3.85;2.10;;;;;;;;;;5107200;28;20076;-70
2023/07/31 11:50:11;;;;;;;4.35;2.17;;;871.30;1049.60;;;;;;5136007;27;20028;-73
2023/07/31 11:52:42;;;;;;;5.25;2.22;;;896.00;1049.60;;;;;;5103456;28;20065;-72
2023/07/31 11:55:12;;;;;;;4.80;2.50;;;871.20;1024.00;;;;;;5103056;28;20101;-70
2023/07/31 11:57:41;;;;;;;4.50;2.22;;;871.10;1049.60;;;;;;5102699;28;20030;-70
2023/07/31 12:00:11;;;;;;;6.20;2.50;;;871.20;1049.60;;;;;;5101076;28;20443;-70
2023/07/31 12:02:39;;;;;;;7.15;2.60;;;871.10;1049.60;;;;;;5098887;28;20416;-70
2023/07/31 12:05:05;;;;;;;4.03;2.20;;;871.10;1024.00;;;;;;5102819;28;20046;-71
2023/07/31 12:07:49;;;;;;;5.68;2.80;;;871.10;998.40;;;;;;5096865;28;20052;-71
2023/07/31 12:10:32;;;;;;;7.75;2.60;;;871.10;1024.00;;;;;;5102543;28;20135;-71
2023/07/31 12:13:06;;;;;;;7.80;2.40;;;871.30;1024.00;;;;;;5101315;28;20060;-70
2023/07/31 12:15:35;;;;;;;3.45;2.08;;;871.20;1024.00;;;;;;5096899;28;20031;-70